x

Half Moon Bay - 24nm Ssw Of San Francisco, Ca (46012) Wave Buoy

4:50pm - Mon 3rd Aug 2015 All times are PDT. -7 hours from GMT.

  • Sig Wave height 2.3ft
  • Swell Direction
  • Peak Period 12s
  • Average Period 7s
  • Wind
    7mph
  • Sea Temp 65°f
  • Air Temp 65°f
  • Sea Pressure 1015.1mb
  • Half Moon Bay - 24nm Ssw Of San Francisco, Ca
  • Half Moon Bay - 24nm Ssw Of San Francisco, Ca

More Historic Weather Station data

Upgrade to MSW Pro to gain access to the past 30 days of data for over 8000 Wavebouys and Weather Stations around the globe.

Join Pro

Comparision Forecast

View Surf forecast
   
Mon 08/03 4:50pm 2.5ft 12s 7s 7
mph
1015.1mb 65f 65f
3:50pm 2.5ft 11s 7s 4 7 mph 1015.5mb 62f 65f
2:50pm 3ft 16s 7s 4 7 mph 1015.6mb 62f 65f
1:50pm 2.5ft 15s 6s 4
mph
1015.8mb 62f 65f
12:50pm 2.5ft 16s 7s 4
mph
1016mb 63f 64f
11:50am 2.5ft 16s 6s 7
mph
1016.1mb 63f 64f
10:50am 3ft 12s 7s 7
mph
1015.9mb 63f 64f
9:50am 3ft 16s 7s 7
mph
1015.7mb 63f 64f
8:50am 2.5ft 16s 6s 9
mph
1015.2mb 62f 64f
7:50am 2.5ft 16s 6s 7 9 mph 1015.3mb 63f 64f
6:50am 2.5ft 16s 6s 7 9 mph 1015.2mb 62f 64f
5:50am 2.5ft 13s 6s 11 13 mph 1014.8mb 61f 64f
4:50am 2.5ft 16s 6s 7 9 mph 1014.6mb 61f 64f
3:50am 2.5ft 14s 6s 9 11 mph 1014.5mb 61f 64f
2:50am 2.5ft 16s 7s 9 13 mph 1014.4mb 61f 64f
1:50am 2.5ft 16s 6s 9
mph
1014.5mb 62f 64f
12:50am 2.5ft 16s 7s 9 11 mph 1014.5mb 63f 64f
Sun 08/02 11:50pm 2.5ft 15s 7s 7 9 mph 1014.3mb 64f 64f
10:50pm 2.5ft 15s 7s 2
mph
1014.3mb 64f 64f
9:50pm 2.5ft 14s 7s  -  2 mph 1014mb 65f 64f
8:50pm 2.5ft 14s 7s  -  mph 1013.4mb 64f 63f
7:50pm 2.5ft 16s 7s 2 4 mph 1013.6mb 64f 65f
6:50pm 2.5ft 14s 7s 4
mph
1013.8mb 64f 65f
5:50pm 2.5ft 12s 7s 7
mph
1014mb 64f 65f
4:50pm 2.5ft 16s 7s 7 9 mph 1014.2mb 65f 65f
3:50pm 2.5ft 13s 7s 7
mph
1014.8mb 64f 64f
2:50pm 2.5ft 12s 7s 4 7 mph 1015.4mb 62f 64f
1:50pm 2.5ft 13s 6s 4 7 mph 1015.6mb 63f 64f
12:50pm 2.5ft 13s 6s 2 4 mph 1016mb 62f 64f
11:50am 2.5ft 14s 6s 2 4 mph 1016.3mb 62f 64f
10:50am 2.5ft 15s 6s 4 7 mph 1016.3mb 62f 63f
9:50am 3ft 13s 6s 4 7 mph 1016.4mb 62f 63f
8:50am 3ft 13s 6s 7 9 mph 1016.1mb 62f 63f
7:50am 3.5ft 13s 7s 9 13 mph 1015.7mb 62f 63f
6:50am 3ft 14s 6s 9 11 mph 1015.3mb 62f 63f
5:50am 3ft 8s 6s 7 9 mph 1015mb 63f 63f
4:50am 3.5ft 14s 7s 7 9 mph 1014.8mb 63f 63f
3:50am 3.5ft 8s 7s 9 11 mph 1015.1mb 63f 63f
2:50am 3ft 8s 6s 9 11 mph 1014.9mb 63f 63f
1:50am 3.5ft 14s 7s 9 11 mph 1014.9mb 63f 64f
12:50am 3.5ft 13s 7s 7 9 mph 1015.2mb 64f 64f
Sat 08/01 11:50pm 3.5ft 8s 7s 4 7 mph 1015.5mb 64f 64f
10:50pm 3.5ft 13s 6s 9
mph
1015.6mb 64f 64f
9:50pm 3.5ft 13s 7s 9
mph
1015.7mb 64f 64f
8:50pm 3.5ft 15s 7s 11 13 mph 1015.2mb 64f 65f
7:50pm 3.5ft 15s 7s 9 11 mph 1014.9mb 64f 65f
6:50pm 3.5ft 14s 7s 9 11 mph 1014.8mb 65f 66f
5:50pm 3ft 14s 8s 9
mph
1014.8mb 63f 65f
4:50pm 2.5ft 14s 7s 7 9 mph 1015mb 64f 65f
3:50pm 3ft 13s 8s 7 9 mph 1015.2mb 65f 65f
2:50pm 3ft 14s 8s 4
mph
1015.6mb 63f 66f
1:50pm 3ft 14s 7s 2 4 mph 1016.1mb 64f 64f
12:50pm 3.5ft 14s 8s 4
mph
1016.7mb 63f 64f
11:50am 3.5ft 14s 8s 2 4 mph 1017mb 62f 65f
10:50am 3ft 15s 7s  -  2 mph 1017.2mb 63f 67f
9:50am 3ft 14s 7s 2 4 mph 1017.4mb 63f 64f
8:50am 3ft 16s 7s 4
mph
1017.4mb 63f 63f
7:50am 3.5ft 14s 8s 2 4 mph 1017.2mb 63f 63f
6:50am 3.5ft 15s 8s 2
mph
1016.9mb 63f 63f
5:50am 3.5ft 14s 8s 2
mph
1016.4mb 63f 64f
4:50am 3.5ft 14s 8s 2 4 mph 1016.2mb 63f 63f
3:50am 3.5ft 14s 8s 4 7 mph 1015.9mb 63f 63f
2:50am 3.5ft 14s 8s 4
mph
1015.7mb 63f 63f
1:50am 3.5ft 14s 9s 7 9 mph 1015.7mb 63f 63f
12:50am 3.5ft 13s 9s 7 9 mph 1016.1mb 63f 64f
Fri 07/31 11:50pm 3.5ft 14s 9s 4 7 mph 1016.2mb 63f 64f
10:50pm 3.5ft 14s 9s 4 7 mph 1016.4mb 63f 64f
9:50pm 3.5ft 14s 9s 4 7 mph 1016.5mb 63f 63f
8:50pm 3.5ft 14s 9s 2 4 mph 1016.4mb 63f 64f
7:50pm 3.5ft 16s 9s 4
mph
1016.2mb 63f 64f
6:50pm 3.5ft 16s 8s 4
mph
1015.9mb 63f 64f
5:50pm 4ft 15s 8s 2 4 mph 1016.2mb 63f 64f
4:50pm 4ft 15s 9s 2 4 mph 1016.6mb 63f 64f
3:50pm 3.5ft 16s 8s 4
mph
1017mb 63f 64f
2:50pm 3.5ft 14s 9s 4
mph
1017.7mb 62f 64f
1:50pm 3.5ft 14s 9s 4 7 mph 1017.3mb 62f 63f
12:50pm 3.5ft 14s 9s 4
mph
1017.7mb 62f 63f
11:50am 4ft 14s 9s 4
mph
1017.7mb 62f 62f
10:50am 4ft 15s 9s 4 7 mph 1017.6mb 62f 62f
9:50am 4ft 15s 8s 2 4 mph 1017.7mb 62f 62f
8:50am 4.5ft 15s 9s 2 4 mph 1017.6mb 62f 62f
7:50am 4.5ft 17s 8s  -  2 mph 1017.7mb 62f 62f
6:50am 4ft 15s 8s 2
mph
1017.3mb 62f 61f
5:50am 4ft 15s 8s 7 9 mph 1017mb 62f 62f
4:50am 4ft 15s 8s 7 9 mph 1016.6mb 62f 62f
3:50am 4.5ft 15s 9s 7 9 mph 1016.7mb 62f 62f
2:50am 4.5ft 15s 9s 7 11 mph 1016.6mb 62f 62f
1:50am 4ft 15s 9s 4 7 mph 1016.9mb 62f 62f
12:50am 4.5ft 10s 9s 4 9 mph 1017.1mb 62f 62f